Latest Weather Observations for Tibooburra Airport

IDN60801

Issued at 8:35 am EDT Tuesday 25 November 2014 (issued every 30 minutes, with the page automatically refreshed every 10 minutes)

About weather observations | Map of weather stations | Latest weather observations for NSW | Other Formats
Station Details ID: 046126 Name: TIBOOBURRA AIRPORT Lat: -29.44 Lon: 142.06 Height: 176.4 m
Data from the previous 72 hours. | See also: Recent months for locations in New South Wales
Date/Time
EDT
Temp
°C
App
Temp
°C
Dew
Point
Rel
Hum
%
Delta-T
°C
Wind Press
QNH
hPa
Press
MSL
hPa
Rain
since 9 am
mm
Dir
 
Spd
km/h
Gust
km/h
Spd
kts
Gust
kts
25/08:30am 18.3 9.8 3.4 37 7.0 SSE 37 48 20 26 1018.8 1017.9 5.6
25/08:10am 18.1 9.9 2.8 36 7.1 SSE 35 54 19 29 1018.5 1017.6 5.6
25/08:00am 17.9 10.0 2.2 35 7.2 SSE 33 48 18 26 1018.6 1017.7 5.6
25/07:30am 17.3 10.0 5.3 45 5.8 SSE 33 43 18 23 1018.1 1017.2 5.6
25/07:00am 17.6 12.8 10.2 62 4.0 SSE 26 39 14 21 1017.5 1016.6 5.6
25/06:30am 18.1 11.9 10.0 59 4.3 SSE 33 44 18 24 1017.0 1016.1 5.6
25/06:00am 18.7 13.5 12.9 69 3.3 SSE 32 43 17 23 1016.3 1015.4 5.6
25/05:30am 19.1 14.0 13.1 68 3.4 S 32 43 17 23 1015.5 1014.6 5.6
25/05:00am 19.5 13.8 13.0 66 3.7 S 35 50 19 27 1015.0 1014.1 5.6
25/04:30am 20.1 14.1 13.3 65 3.9 S 37 48 20 26 1014.6 1013.7 5.6
25/04:00am 21.4 17.5 17.0 76 2.7 S 33 46 18 25 1014.2 1013.3 5.6
25/03:52am 21.9 16.6 17.3 75 2.8 S 41 46 22 25 1014.3 1013.4 5.6
25/03:30am 21.8 20.6 17.4 76 2.7 SSE 20 26 11 14 1013.9 1013.0 5.6
25/03:00am 21.6 21.3 17.4 77 2.6 SSE 15 20 8 11 1014.0 1013.1 5.6
25/02:30am 21.6 21.6 18.0 80 2.3 S 15 19 8 10 1013.9 1013.0 5.6
25/02:00am 22.0 22.5 18.4 80 2.3 S 13 15 7 8 1014.1 1013.2 5.6
25/01:30am 22.2 23.5 18.4 79 2.4 SSE 9 13 5 7 1014.0 1013.1 5.6
25/01:00am 22.0 24.3 18.6 81 2.2 S 4 7 2 4 1013.9 1013.0 5.6
25/12:30am 22.0 23.8 18.4 80 2.3 S 6 9 3 5 1013.9 1013.0 5.6
25/12:00am 22.3 24.4 18.1 77 2.6 NNW 4 7 2 4 1013.5 1012.6 5.6
 
Date/Time
EDT
Temp
°C
App
Temp
°C
Dew
Point
Rel
Hum
%
Delta-T
°C
Wind Press
QNH
hPa
Press
MSL
hPa
Rain
since 9 am
mm
Dir
 
Spd
km/h
Gust
km/h
Spd
kts
Gust
kts
24/11:30pm 22.8 24.0 17.3 71 3.4 SE 7 11 4 6 1013.3 1012.4 5.6
24/11:00pm 23.3 23.1 16.8 67 4.0 SSW 13 17 7 9 1013.9 1013.0 5.6
24/10:30pm 23.6 22.2 16.6 65 4.3 S 19 28 10 15 1014.0 1013.1 5.6
24/10:00pm 23.5 21.6 16.8 66 4.1 SSW 22 30 12 16 1014.1 1013.2 5.6
24/09:30pm 23.9 19.4 17.4 67 4.1 SSW 37 50 20 27 1014.1 1013.2 5.6
24/09:12pm 26.1 20.4 17.7 60 5.3 SW 44 72 24 39 1013.7 1012.8 5.6
24/09:08pm 26.1 21.0 18.5 63 4.9 SW 43 56 23 30 1013.8 1012.9 5.6
24/09:06pm 25.8 24.1 19.7 69 4.0 WSW 28 48 15 26 1013.7 1012.8 5.6
24/09:00pm 26.1 26.4 19.5 67 4.3 N 17 22 9 12 1011.9 1011.0 5.6
24/08:30pm 26.1 27.0 20.0 69 4.0 N 15 17 8 9 1011.5 1010.6 5.6
24/08:00pm 26.6 26.9 19.5 65 4.6 N 17 20 9 11 1011.3 1010.4 5.6
24/07:30pm 27.2 27.0 18.5 59 5.6 N 17 20 9 11 1010.8 1009.8 5.6
24/07:00pm 27.7 28.0 18.7 58 5.8 N 15 17 8 9 1010.2 1009.3 5.6
24/06:30pm 28.0 27.9 18.7 57 6.0 N 17 22 9 12 1009.9 1009.0 5.6
24/06:00pm 28.0 28.0 19.0 58 5.8 N 17 20 9 11 1010.1 1009.2 5.6
24/05:30pm 27.8 27.4 18.8 58 5.8 N 19 22 10 12 1010.2 1009.3 5.6
24/05:00pm 27.7 26.6 18.7 58 5.8 N 22 28 12 15 1010.4 1009.4 5.6
24/04:30pm 27.3 27.5 20.6 67 4.4 N 20 28 11 15 1010.5 1009.5 5.6
24/04:00pm 26.3 26.4 20.4 70 3.9 N 20 28 11 15 1010.6 1009.6 5.6
24/03:30pm 25.4 23.8 20.0 72 3.5 NNW 28 37 15 20 1011.2 1010.3 5.6
24/03:00pm 27.6 24.5 16.6 51 6.9 NNW 28 37 15 20 1011.5 1010.6 5.4
24/02:30pm 28.0 25.9 17.2 52 6.8 NNW 24 35 13 19 1011.8 1010.9 5.4
24/02:00pm 27.7 25.5 16.9 51 6.8 NNW 24 32 13 17 1011.6 1010.7 5.4
24/01:30pm 27.5 25.7 17.9 55 6.1 NNW 24 32 13 17 1012.1 1011.2 5.4
24/01:00pm 26.9 26.0 20.7 69 4.1 NNW 26 35 14 19 1012.3 1011.4 5.2
24/12:30pm 26.6 28.2 20.7 70 3.9 N 13 17 7 9 1012.7 1011.8 5.2
24/12:00pm 26.1 26.4 20.7 72 3.6 N 20 28 11 15 1012.3 1011.4 5.2
24/11:30am 23.5 21.4 20.6 84 1.9 N 32 41 17 22 1012.7 1011.8 5.0
24/11:08am 23.6 21.6 21.1 86 1.7 N 33 43 18 23 1013.0 1012.1 4.2
24/11:00am 23.2 24.8 21.5 90 1.1 N 15 20 8 11 1013.4 1012.5 3.8
24/10:30am 23.0 24.9 22.0 94 0.7 E 15 19 8 10 1013.3 1012.4 2.6
24/10:00am 22.8 25.5 21.4 92 0.9 SE 9 15 5 8 1014.0 1013.1 2.0
24/09:30am 23.1 23.7 21.4 90 1.1 WSW 20 30 11 16 1014.7 1013.8 1.0
24/09:00am 23.8 22.2 19.3 76 2.9 W 26 37 14 20 1014.8 1013.9 1.6
24/08:49am 25.1 22.6 18.1 65 4.4 NW 28 35 15 19 1014.5 1013.6 0.6
24/08:30am 28.8 29.0 15.7 45 8.1 WSW 9 13 5 7 1012.9 1012.0 0.0
24/08:00am 28.9 27.1 15.4 44 8.3 S 19 24 10 13 1011.4 1010.5 0.0
24/07:30am 28.1 28.2 15.4 46 7.8 SSW 9 11 5 6 1010.8 1009.8 0.0
24/07:00am 27.6 26.6 15.6 48 7.4 ESE 15 17 8 9 1009.7 1008.8 0.0
24/06:30am 27.4 27.0 16.1 50 7.0 E 13 17 7 9 1010.0 1009.1 0.0
24/06:00am 27.4 26.6 16.1 50 7.0 ENE 15 19 8 10 1009.9 1009.0 0.0
24/05:30am 27.6 27.5 15.9 49 7.2 ESE 11 13 6 7 1010.1 1009.2 0.0
24/05:00am 28.1 27.8 15.4 46 7.8 ESE 11 13 6 7 1010.4 1009.4 0.0
24/04:30am 29.0 28.7 14.4 41 8.9 ESE 9 13 5 7 1010.6 1009.6 0.0
24/04:00am 29.0 28.8 14.8 42 8.7 SE 9 11 5 6 1010.9 1009.9 0.0
24/03:30am 29.0 28.6 14.0 39 9.1 ESE 9 13 5 7 1010.8 1009.8 0.0
24/03:00am 29.6 28.9 14.2 39 9.4 SE 11 15 6 8 1011.2 1010.3 0.0
24/02:30am 29.4 28.7 14.4 40 9.1 ESE 11 13 6 7 1011.1 1010.2 0.0
24/02:00am 29.1 28.2 14.9 42 8.7 SSE 13 17 7 9 1011.2 1010.3 0.0
24/01:30am 29.3 28.9 15.1 42 8.7 SSE 11 17 6 9 1012.2 1011.3 0.0
24/01:00am 29.3 27.2 14.7 41 8.9 SE 19 26 10 14 1012.6 1011.7 0.0
24/12:30am 29.3 - - - - SSE 24 33 13 18 1012.2 1011.3 0.0
24/12:00am 29.4 21.1 -24.7 2 17.0 S 24 32 13 17 1012.0 1011.1 0.0
 
Date/Time
EDT
Temp
°C
App
Temp
°C
Dew
Point
Rel
Hum
%
Delta-T
°C
Wind Press
QNH
hPa
Press
MSL
hPa
Rain
since 9 am
mm
Dir
 
Spd
km/h
Gust
km/h
Spd
kts
Gust
kts
23/11:30pm 30.3 - - - - S 33 44 18 24 1011.6 1010.7 0.0
23/11:00pm 31.9 - - - - SSW 35 44 19 24 1011.3 1010.4 0.0
23/10:40pm 34.0 - - - - WSW 28 39 15 21 1011.3 1010.4 0.0
23/10:30pm 34.9 - - - - SSW 17 20 9 11 1011.4 1010.5 0.0
23/10:00pm 34.8 - - - - SSE 20 30 11 16 1010.1 1009.2 0.0
23/09:30pm 35.1 - - - - SSE 24 33 13 18 1009.4 1008.5 0.0
23/09:00pm 36.2 - - - - SSE 26 35 14 19 1009.0 1008.1 0.0
23/08:30pm 37.2 - - - - SSE 24 33 13 18 1008.5 1007.6 0.0
23/08:00pm 39.0 - - - - E 15 19 8 10 1008.1 1007.2 0.0
23/07:30pm 39.8 - - - - E 13 20 7 11 1007.8 1006.9 0.0
23/07:00pm 40.4 - - - - NNE 11 19 6 10 1007.6 1006.7 0.0
23/06:30pm 40.8 - - - - NE 17 24 9 13 1007.7 1006.8 0.0
23/06:00pm 40.1 - - - - N 15 28 8 15 1007.9 1007.0 0.0
23/05:30pm 40.8 - - - - N 6 15 3 8 1008.1 1007.2 0.0
23/05:00pm 40.7 - - - - NNW 17 24 9 13 1008.4 1007.5 0.0
23/04:30pm 40.1 - - - - NW 15 22 8 12 1008.6 1007.7 0.0
23/04:00pm 42.0 - - - - WSW 13 24 7 13 1008.7 1007.8 0.0
23/03:30pm 41.5 - - - - WNW 20 32 11 17 1008.9 1008.0 0.0
23/03:00pm 40.7 - - - - WSW 17 28 9 15 1009.2 1008.3 0.0
23/02:30pm 40.4 - - - - W 9 17 5 9 1009.6 1008.7 0.0
23/02:00pm 40.2 - - - - SSW 24 28 13 15 1009.9 1009.0 0.0
23/01:30pm 39.4 - - - - WSW 24 35 13 19 1010.1 1009.2 0.0
23/01:00pm 40.1 - - - - SW 26 39 14 21 1010.1 1009.2 0.0
23/12:30pm 39.9 - - - - WSW 22 30 12 16 1010.7 1009.7 0.0
23/12:00pm 40.1 - - - - WSW 22 32 12 17 1011.0 1010.0 0.0
23/11:30am 38.8 - - - - SW 22 30 12 16 1011.0 1010.0 0.0
23/11:00am 38.3 - - - - WSW 17 22 9 12 1011.1 1010.2 0.0
23/10:30am 38.0 - - - - WSW 17 22 9 12 1011.1 1010.2 0.0
23/10:00am 38.6 - - - - W 15 24 8 13 1010.8 1009.8 0.0
23/09:30am 38.1 32.8 -0.3 9 19.4 W 17 20 9 11 1010.8 1009.8 0.0
23/09:00am 37.4 32.5 2.0 11 18.5 NW 17 22 9 12 1010.8 1009.8 0.0
23/08:30am 34.6 30.5 2.2 13 16.7 N 13 17 7 9 1010.6 1009.6 0.0
23/08:00am 33.0 27.5 2.0 14 15.8 N 20 28 11 15 1010.1 1009.2 0.0
23/07:30am 32.9 29.9 1.9 14 15.7 E 7 15 4 8 1009.2 1008.3 0.0
23/07:00am 31.4 28.1 2.6 16 14.7 SSW 9 11 5 6 1008.8 1007.9 0.0
23/06:30am 31.3 26.1 2.5 16 14.6 SW 19 26 10 14 1008.8 1007.9 0.0
23/06:00am 33.5 28.7 2.4 14 16.0 NNW 17 24 9 13 1008.7 1007.8 0.0
23/05:30am 31.8 27.7 2.0 15 15.0 N 13 15 7 8 1008.5 1007.6 0.0
23/05:00am 32.3 27.5 2.4 15 15.2 N 17 22 9 12 1008.1 1007.2 0.0
23/04:30am 31.5 26.9 1.8 15 14.9 N 15 17 8 9 1008.0 1007.1 0.0
23/04:00am 31.0 - - - - NNE 15 19 8 10 1007.9 1007.0 0.0
23/03:30am 30.9 - - - - NNE 9 11 5 6 1007.7 1006.8 0.0
23/03:00am 31.4 - - - - S 11 22 6 12 1008.1 1007.2 0.0
23/02:30am 31.2 - - - - N 11 13 6 7 1008.0 1007.1 0.0
23/02:00am 33.7 - - - - NW 13 15 7 8 1007.8 1006.9 0.0
23/01:30am 34.6 - - - - NNW 15 17 8 9 1008.3 1007.4 0.0
23/01:00am 34.7 - - - - NNW 15 17 8 9 1008.4 1007.5 0.0
23/12:30am 35.3 - - - - NNW 15 17 8 9 1008.6 1007.7 0.0
23/12:00am 35.8 - - - - NW 15 17 8 9 1008.6 1007.7 0.0
 
Date/Time
EDT
Temp
°C
App
Temp
°C
Dew
Point
Rel
Hum
%
Delta-T
°C
Wind Press
QNH
hPa
Press
MSL
hPa
Rain
since 9 am
mm
Dir
 
Spd
km/h
Gust
km/h
Spd
kts
Gust
kts
22/11:30pm 35.9 - - - - NW 17 19 9 10 1008.7 1007.8 0.0
22/11:00pm 35.8 - - - - NW 15 17 8 9 1008.6 1007.7 0.0
22/10:30pm 35.8 - - - - WNW 15 17 8 9 1008.5 1007.6 0.0
22/10:00pm 36.3 - - - - NW 15 15 8 8 1008.3 1007.4 0.0
22/09:30pm 36.8 - - - - NW 13 15 7 8 1008.1 1007.2 0.0
22/09:00pm 37.4 - - - - WNW 17 19 9 10 1007.8 1006.9 0.0
22/08:30pm 38.4 - - - - WNW 17 20 9 11 1007.6 1006.7 0.0
22/08:00pm 39.5 - - - - WNW 24 33 13 18 1007.4 1006.5 0.0
22/07:30pm 40.1 - - - - WNW 30 39 16 21 1007.3 1006.4 0.0
22/07:00pm 40.6 - - - - WNW 32 43 17 23 1007.0 1006.1 0.0
22/06:30pm 40.9 - - - - NW 30 39 16 21 1006.6 1005.7 0.0
22/06:00pm 41.8 - - - - WNW 30 41 16 22 1006.5 1005.6 0.0
22/05:30pm 41.5 - - - - NW 26 35 14 19 1006.5 1005.6 0.0
22/05:00pm 42.5 - - - - WNW 30 43 16 23 1006.6 1005.7 0.0
22/04:33pm 43.1 - - - - WNW 41 59 22 32 1006.6 1005.7 0.0
22/04:30pm 43.3 - - - - WNW 37 52 20 28 1006.7 1005.8 0.0
22/04:02pm 41.5 - - - - NW 28 50 15 27 1007.0 1006.1 0.0
22/04:00pm 42.1 - - - - NW 24 33 13 18 1007.0 1006.1 0.0
22/03:30pm 43.0 - - - - WNW 22 33 12 18 1007.4 1006.5 0.0
22/03:18pm 42.3 - - - - NW 28 46 15 25 1007.7 1006.8 0.0
22/03:00pm 42.7 - - - - WNW 26 41 14 22 1007.9 1007.0 0.0
22/02:30pm 42.5 - - - - WNW 24 28 13 15 1008.3 1007.4 0.0
22/02:25pm 42.0 - - - - WNW 28 46 15 25 1008.3 1007.4 0.0
22/02:00pm 41.5 - - - - WNW 17 32 9 17 1008.7 1007.8 0.0
22/01:30pm 42.1 - - - - NNW 26 33 14 18 1008.9 1008.0 0.0
22/01:00pm 41.5 - - - - N 20 30 11 16 1009.3 1008.4 0.0
22/12:30pm 41.3 - - - - NNE 20 32 11 17 1009.4 1008.5 0.0
22/12:00pm 40.1 - - - - N 22 39 12 21 1009.7 1008.8 0.0
22/11:30am 38.7 - - - - NNE 26 37 14 20 1009.9 1009.0 0.0
22/11:00am 38.3 - - - - NNE 32 44 17 24 1009.7 1008.8 0.0
22/10:30am 36.8 - - - - NE 35 46 19 25 1009.6 1008.7 0.0
22/10:00am 35.4 - - - - NNE 32 41 17 22 1010.5 1009.5 0.0
22/09:30am 34.5 24.6 -13.3 4 19.1 NNE 35 43 19 23 1010.7 1009.7 0.0
22/09:00am 33.0 - - - - NE 30 39 16 21 1010.7 1009.7 0.0

Other Formats:

Comma delimited format used in spreadsheet applications
http://www.bom.gov.au/fwo/IDN60801/IDN60801.95485.axf

JavaScript Object Notation format (JSON) in row-major order
http://www.bom.gov.au/fwo/IDN60801/IDN60801.95485.json